sensor_id;sensor_type;location;lat;lon;timestamp;P1;durP1;ratioP1;P2;durP2;ratioP2
17598;SDS011;8918;52.092;5.232;2023-12-22T00:02:19;10.47;;;2.20;;
17598;SDS011;8918;52.092;5.232;2023-12-22T00:04:45;11.20;;;2.30;;
17598;SDS011;8918;52.092;5.232;2023-12-22T00:07:11;14.47;;;2.33;;
17598;SDS011;8918;52.092;5.232;2023-12-22T00:09:36;14.67;;;2.13;;
17598;SDS011;8918;52.092;5.232;2023-12-22T00:12:02;11.80;;;2.70;;
17598;SDS011;8918;52.092;5.232;2023-12-22T00:14:28;11.23;;;2.10;;
17598;SDS011;8918;52.092;5.232;2023-12-22T00:16:54;12.20;;;2.00;;
17598;SDS011;8918;52.092;5.232;2023-12-22T00:19:19;16.13;;;2.40;;
17598;SDS011;8918;52.092;5.232;2023-12-22T00:21:45;12.37;;;1.97;;
17598;SDS011;8918;52.092;5.232;2023-12-22T00:24:11;10.70;;;2.60;;
17598;SDS011;8918;52.092;5.232;2023-12-22T00:26:36;8.73;;;2.23;;
17598;SDS011;8918;52.092;5.232;2023-12-22T00:29:02;7.07;;;1.30;;
17598;SDS011;8918;52.092;5.232;2023-12-22T00:31:27;4.63;;;1.20;;
17598;SDS011;8918;52.092;5.232;2023-12-22T00:33:53;4.97;;;1.07;;
17598;SDS011;8918;52.092;5.232;2023-12-22T00:36:19;4.83;;;1.47;;
17598;SDS011;8918;52.092;5.232;2023-12-22T00:38:49;4.73;;;1.07;;
17598;SDS011;8918;52.092;5.232;2023-12-22T00:41:14;5.77;;;1.00;;
17598;SDS011;8918;52.092;5.232;2023-12-22T00:43:40;7.90;;;1.37;;
17598;SDS011;8918;52.092;5.232;2023-12-22T00:46:06;3.83;;;1.10;;
17598;SDS011;8918;52.092;5.232;2023-12-22T00:48:31;8.03;;;1.30;;
17598;SDS011;8918;52.092;5.232;2023-12-22T00:50:57;6.50;;;1.50;;
17598;SDS011;8918;52.092;5.232;2023-12-22T00:53:23;4.93;;;1.60;;
17598;SDS011;8918;52.092;5.232;2023-12-22T00:55:48;3.30;;;1.43;;
17598;SDS011;8918;52.092;5.232;2023-12-22T00:58:14;7.63;;;1.80;;
17598;SDS011;8918;52.092;5.232;2023-12-22T01:00:39;11.30;;;2.10;;
17598;SDS011;8918;52.092;5.232;2023-12-22T01:03:05;6.53;;;1.60;;
17598;SDS011;8918;52.092;5.232;2023-12-22T01:05:31;9.40;;;1.67;;
17598;SDS011;8918;52.092;5.232;2023-12-22T01:07:56;11.93;;;2.20;;
17598;SDS011;8918;52.092;5.232;2023-12-22T01:10:22;15.07;;;2.07;;
17598;SDS011;8918;52.092;5.232;2023-12-22T01:12:47;10.57;;;2.10;;
17598;SDS011;8918;52.092;5.232;2023-12-22T01:15:13;13.47;;;2.63;;
17598;SDS011;8918;52.092;5.232;2023-12-22T01:17:38;10.20;;;2.50;;
17598;SDS011;8918;52.092;5.232;2023-12-22T01:20:04;10.37;;;2.03;;
17598;SDS011;8918;52.092;5.232;2023-12-22T01:22:30;9.10;;;2.10;;
17598;SDS011;8918;52.092;5.232;2023-12-22T01:24:57;10.03;;;1.93;;
17598;SDS011;8918;52.092;5.232;2023-12-22T01:27:22;14.07;;;2.30;;
17598;SDS011;8918;52.092;5.232;2023-12-22T01:29:49;10.43;;;2.57;;
17598;SDS011;8918;52.092;5.232;2023-12-22T01:32:15;10.67;;;2.70;;
17598;SDS011;8918;52.092;5.232;2023-12-22T01:34:40;10.47;;;2.30;;
17598;SDS011;8918;52.092;5.232;2023-12-22T01:37:06;8.93;;;2.33;;
17598;SDS011;8918;52.092;5.232;2023-12-22T01:39:31;12.83;;;2.40;;
17598;SDS011;8918;52.092;5.232;2023-12-22T01:41:57;15.87;;;2.50;;
17598;SDS011;8918;52.092;5.232;2023-12-22T01:44:22;9.33;;;2.23;;
17598;SDS011;8918;52.092;5.232;2023-12-22T01:46:48;11.90;;;2.57;;
17598;SDS011;8918;52.092;5.232;2023-12-22T01:49:15;14.17;;;2.40;;
17598;SDS011;8918;52.092;5.232;2023-12-22T01:51:41;10.73;;;2.50;;
17598;SDS011;8918;52.092;5.232;2023-12-22T01:54:08;14.27;;;2.50;;
17598;SDS011;8918;52.092;5.232;2023-12-22T01:56:34;14.90;;;3.10;;
17598;SDS011;8918;52.092;5.232;2023-12-22T01:59:00;14.50;;;2.57;;
17598;SDS011;8918;52.092;5.232;2023-12-22T02:01:27;16.03;;;2.50;;
17598;SDS011;8918;52.092;5.232;2023-12-22T02:03:54;18.70;;;2.80;;
17598;SDS011;8918;52.092;5.232;2023-12-22T02:06:21;16.37;;;2.97;;
17598;SDS011;8918;52.092;5.232;2023-12-22T02:08:47;18.20;;;2.90;;
17598;SDS011;8918;52.092;5.232;2023-12-22T02:11:13;11.17;;;2.57;;
17598;SDS011;8918;52.092;5.232;2023-12-22T02:13:39;15.27;;;2.70;;
17598;SDS011;8918;52.092;5.232;2023-12-22T02:18:52;18.80;;;3.03;;
17598;SDS011;8918;52.092;5.232;2023-12-22T02:21:21;19.47;;;3.50;;
17598;SDS011;8918;52.092;5.232;2023-12-22T02:23:49;19.83;;;3.23;;
17598;SDS011;8918;52.092;5.232;2023-12-22T02:26:25;19.63;;;4.07;;
17598;SDS011;8918;52.092;5.232;2023-12-22T02:28:58;20.53;;;3.27;;
17598;SDS011;8918;52.092;5.232;2023-12-22T02:31:39;17.90;;;3.17;;
17598;SDS011;8918;52.092;5.232;2023-12-22T02:34:11;18.47;;;3.77;;
17598;SDS011;8918;52.092;5.232;2023-12-22T02:36:43;20.17;;;4.53;;
17598;SDS011;8918;52.092;5.232;2023-12-22T02:39:09;21.33;;;3.70;;
17598;SDS011;8918;52.092;5.232;2023-12-22T02:41:37;16.77;;;3.30;;
17598;SDS011;8918;52.092;5.232;2023-12-22T02:44:04;19.13;;;3.67;;
17598;SDS011;8918;52.092;5.232;2023-12-22T02:46:29;17.20;;;4.03;;
17598;SDS011;8918;52.092;5.232;2023-12-22T02:48:55;20.40;;;3.80;;
17598;SDS011;8918;52.092;5.232;2023-12-22T02:51:20;17.53;;;3.27;;
17598;SDS011;8918;52.092;5.232;2023-12-22T02:53:46;17.80;;;3.43;;
17598;SDS011;8918;52.092;5.232;2023-12-22T02:56:12;18.97;;;3.33;;
17598;SDS011;8918;52.092;5.232;2023-12-22T02:58:37;17.67;;;3.53;;
17598;SDS011;8918;52.092;5.232;2023-12-22T03:01:03;20.17;;;4.10;;
17598;SDS011;8918;52.092;5.232;2023-12-22T03:03:28;14.93;;;3.60;;
17598;SDS011;8918;52.092;5.232;2023-12-22T03:05:54;14.43;;;3.30;;
17598;SDS011;8918;52.092;5.232;2023-12-22T03:08:19;15.50;;;3.17;;
17598;SDS011;8918;52.092;5.232;2023-12-22T03:10:45;19.37;;;3.30;;
17598;SDS011;8918;52.092;5.232;2023-12-22T03:13:10;14.83;;;2.97;;
17598;SDS011;8918;52.092;5.232;2023-12-22T03:15:36;16.40;;;2.90;;
17598;SDS011;8918;52.092;5.232;2023-12-22T03:18:01;14.47;;;2.77;;
17598;SDS011;8918;52.092;5.232;2023-12-22T03:20:27;16.30;;;4.10;;
17598;SDS011;8918;52.092;5.232;2023-12-22T03:22:53;19.43;;;3.20;;
17598;SDS011;8918;52.092;5.232;2023-12-22T03:25:18;15.17;;;3.03;;
17598;SDS011;8918;52.092;5.232;2023-12-22T03:27:44;18.43;;;3.60;;
17598;SDS011;8918;52.092;5.232;2023-12-22T03:30:10;17.13;;;3.17;;
17598;SDS011;8918;52.092;5.232;2023-12-22T03:32:36;15.10;;;2.93;;
17598;SDS011;8918;52.092;5.232;2023-12-22T03:35:01;15.20;;;3.60;;
17598;SDS011;8918;52.092;5.232;2023-12-22T03:37:28;19.47;;;3.67;;
17598;SDS011;8918;52.092;5.232;2023-12-22T03:39:54;18.57;;;3.27;;
17598;SDS011;8918;52.092;5.232;2023-12-22T03:42:19;21.10;;;3.83;;
17598;SDS011;8918;52.092;5.232;2023-12-22T03:44:45;21.50;;;3.33;;
17598;SDS011;8918;52.092;5.232;2023-12-22T03:47:10;20.27;;;3.70;;
17598;SDS011;8918;52.092;5.232;2023-12-22T03:49:36;16.43;;;3.30;;
17598;SDS011;8918;52.092;5.232;2023-12-22T03:52:02;11.93;;;2.60;;
17598;SDS011;8918;52.092;5.232;2023-12-22T03:54:27;15.93;;;3.50;;
17598;SDS011;8918;52.092;5.232;2023-12-22T03:56:53;15.50;;;3.20;;
17598;SDS011;8918;52.092;5.232;2023-12-22T03:59:18;14.93;;;2.90;;
17598;SDS011;8918;52.092;5.232;2023-12-22T04:01:49;15.17;;;3.37;;
17598;SDS011;8918;52.092;5.232;2023-12-22T04:04:18;18.23;;;3.07;;
17598;SDS011;8918;52.092;5.232;2023-12-22T04:06:44;18.87;;;2.70;;
17598;SDS011;8918;52.092;5.232;2023-12-22T04:09:10;18.53;;;2.93;;
17598;SDS011;8918;52.092;5.232;2023-12-22T04:11:35;17.43;;;3.30;;
17598;SDS011;8918;52.092;5.232;2023-12-22T04:14:02;14.13;;;3.00;;
17598;SDS011;8918;52.092;5.232;2023-12-22T04:16:27;17.50;;;3.40;;
17598;SDS011;8918;52.092;5.232;2023-12-22T04:18:53;13.07;;;3.00;;
17598;SDS011;8918;52.092;5.232;2023-12-22T04:21:19;19.07;;;3.33;;
17598;SDS011;8918;52.092;5.232;2023-12-22T04:23:44;22.23;;;3.30;;
17598;SDS011;8918;52.092;5.232;2023-12-22T04:26:10;16.93;;;3.20;;
17598;SDS011;8918;52.092;5.232;2023-12-22T04:28:35;18.50;;;3.47;;
17598;SDS011;8918;52.092;5.232;2023-12-22T04:31:01;17.33;;;3.17;;
17598;SDS011;8918;52.092;5.232;2023-12-22T04:33:27;19.73;;;3.70;;
17598;SDS011;8918;52.092;5.232;2023-12-22T04:35:53;18.30;;;3.20;;
17598;SDS011;8918;52.092;5.232;2023-12-22T04:38:18;11.40;;;2.30;;
17598;SDS011;8918;52.092;5.232;2023-12-22T04:40:44;17.93;;;3.30;;
17598;SDS011;8918;52.092;5.232;2023-12-22T04:43:09;15.07;;;3.13;;
17598;SDS011;8918;52.092;5.232;2023-12-22T04:45:35;15.33;;;3.33;;
17598;SDS011;8918;52.092;5.232;2023-12-22T04:48:00;12.70;;;2.87;;
17598;SDS011;8918;52.092;5.232;2023-12-22T04:50:26;15.43;;;3.03;;
17598;SDS011;8918;52.092;5.232;2023-12-22T04:52:52;18.13;;;3.17;;
17598;SDS011;8918;52.092;5.232;2023-12-22T04:55:17;17.87;;;3.70;;
17598;SDS011;8918;52.092;5.232;2023-12-22T04:57:43;17.20;;;2.87;;
17598;SDS011;8918;52.092;5.232;2023-12-22T05:00:08;13.17;;;3.17;;
17598;SDS011;8918;52.092;5.232;2023-12-22T05:02:34;15.57;;;3.20;;
17598;SDS011;8918;52.092;5.232;2023-12-22T05:05:00;13.37;;;3.33;;
17598;SDS011;8918;52.092;5.232;2023-12-22T05:07:28;11.43;;;2.87;;
17598;SDS011;8918;52.092;5.232;2023-12-22T05:09:54;11.40;;;3.00;;
17598;SDS011;8918;52.092;5.232;2023-12-22T05:12:20;10.73;;;2.63;;
17598;SDS011;8918;52.092;5.232;2023-12-22T05:14:46;17.83;;;3.10;;
17598;SDS011;8918;52.092;5.232;2023-12-22T05:17:12;11.33;;;2.50;;
17598;SDS011;8918;52.092;5.232;2023-12-22T05:19:37;16.90;;;3.50;;
17598;SDS011;8918;52.092;5.232;2023-12-22T05:22:03;16.23;;;3.07;;
17598;SDS011;8918;52.092;5.232;2023-12-22T05:24:29;13.13;;;2.60;;
17598;SDS011;8918;52.092;5.232;2023-12-22T05:26:54;10.80;;;2.70;;
17598;SDS011;8918;52.092;5.232;2023-12-22T05:29:20;14.37;;;2.37;;
17598;SDS011;8918;52.092;5.232;2023-12-22T05:31:45;13.87;;;2.70;;
17598;SDS011;8918;52.092;5.232;2023-12-22T05:34:11;10.93;;;2.43;;
17598;SDS011;8918;52.092;5.232;2023-12-22T05:36:36;11.80;;;2.77;;
17598;SDS011;8918;52.092;5.232;2023-12-22T05:39:02;11.80;;;2.50;;
17598;SDS011;8918;52.092;5.232;2023-12-22T05:41:27;11.93;;;2.47;;
17598;SDS011;8918;52.092;5.232;2023-12-22T05:43:53;11.30;;;2.40;;
17598;SDS011;8918;52.092;5.232;2023-12-22T05:46:19;11.57;;;2.60;;
17598;SDS011;8918;52.092;5.232;2023-12-22T05:48:44;17.13;;;2.80;;
17598;SDS011;8918;52.092;5.232;2023-12-22T05:51:10;13.07;;;2.40;;
17598;SDS011;8918;52.092;5.232;2023-12-22T05:53:39;15.20;;;3.03;;
17598;SDS011;8918;52.092;5.232;2023-12-22T05:56:05;11.87;;;2.53;;
17598;SDS011;8918;52.092;5.232;2023-12-22T05:58:51;12.10;;;2.37;;
17598;SDS011;8918;52.092;5.232;2023-12-22T06:01:17;15.07;;;2.43;;
17598;SDS011;8918;52.092;5.232;2023-12-22T06:03:44;17.43;;;2.83;;
17598;SDS011;8918;52.092;5.232;2023-12-22T06:06:10;10.90;;;2.53;;
17598;SDS011;8918;52.092;5.232;2023-12-22T06:08:36;16.40;;;3.10;;
17598;SDS011;8918;52.092;5.232;2023-12-22T06:11:03;10.90;;;2.70;;
17598;SDS011;8918;52.092;5.232;2023-12-22T06:13:29;11.30;;;2.33;;
17598;SDS011;8918;52.092;5.232;2023-12-22T06:15:54;14.10;;;3.63;;
17598;SDS011;8918;52.092;5.232;2023-12-22T06:18:20;11.70;;;2.73;;
17598;SDS011;8918;52.092;5.232;2023-12-22T06:20:45;18.10;;;3.00;;
17598;SDS011;8918;52.092;5.232;2023-12-22T06:23:11;17.40;;;3.37;;
17598;SDS011;8918;52.092;5.232;2023-12-22T06:25:37;13.23;;;2.80;;
17598;SDS011;8918;52.092;5.232;2023-12-22T06:28:02;17.87;;;3.50;;
17598;SDS011;8918;52.092;5.232;2023-12-22T06:30:28;17.47;;;3.13;;
17598;SDS011;8918;52.092;5.232;2023-12-22T06:32:55;16.33;;;3.10;;
17598;SDS011;8918;52.092;5.232;2023-12-22T06:35:20;16.33;;;2.67;;
17598;SDS011;8918;52.092;5.232;2023-12-22T06:37:49;14.40;;;3.40;;
17598;SDS011;8918;52.092;5.232;2023-12-22T06:40:15;19.03;;;3.70;;
17598;SDS011;8918;52.092;5.232;2023-12-22T06:42:40;17.33;;;3.53;;
17598;SDS011;8918;52.092;5.232;2023-12-22T06:45:06;15.97;;;3.07;;
17598;SDS011;8918;52.092;5.232;2023-12-22T06:47:32;16.40;;;3.13;;
17598;SDS011;8918;52.092;5.232;2023-12-22T06:49:58;14.07;;;3.37;;
17598;SDS011;8918;52.092;5.232;2023-12-22T06:52:24;17.20;;;3.57;;
17598;SDS011;8918;52.092;5.232;2023-12-22T06:54:49;17.73;;;3.80;;
17598;SDS011;8918;52.092;5.232;2023-12-22T06:57:15;19.87;;;3.80;;
17598;SDS011;8918;52.092;5.232;2023-12-22T06:59:41;19.17;;;3.70;;
17598;SDS011;8918;52.092;5.232;2023-12-22T07:02:08;18.17;;;3.83;;
17598;SDS011;8918;52.092;5.232;2023-12-22T07:04:33;24.30;;;4.53;;
17598;SDS011;8918;52.092;5.232;2023-12-22T07:06:59;18.23;;;4.07;;
17598;SDS011;8918;52.092;5.232;2023-12-22T07:11:53;24.87;;;4.00;;
17598;SDS011;8918;52.092;5.232;2023-12-22T07:14:19;23.40;;;4.93;;
17598;SDS011;8918;52.092;5.232;2023-12-22T07:16:45;24.23;;;4.37;;
17598;SDS011;8918;52.092;5.232;2023-12-22T07:19:10;25.80;;;4.47;;
17598;SDS011;8918;52.092;5.232;2023-12-22T07:21:39;16.80;;;4.13;;
17598;SDS011;8918;52.092;5.232;2023-12-22T07:24:05;19.17;;;4.20;;
17598;SDS011;8918;52.092;5.232;2023-12-22T07:26:32;29.40;;;5.33;;
17598;SDS011;8918;52.092;5.232;2023-12-22T07:28:57;24.17;;;5.17;;
17598;SDS011;8918;52.092;5.232;2023-12-22T07:31:23;24.97;;;4.70;;
17598;SDS011;8918;52.092;5.232;2023-12-22T07:33:49;20.73;;;4.47;;
17598;SDS011;8918;52.092;5.232;2023-12-22T07:36:15;19.10;;;3.67;;
17598;SDS011;8918;52.092;5.232;2023-12-22T07:38:41;23.03;;;4.40;;
17598;SDS011;8918;52.092;5.232;2023-12-22T07:41:06;16.37;;;3.53;;
17598;SDS011;8918;52.092;5.232;2023-12-22T07:43:32;27.20;;;4.57;;
17598;SDS011;8918;52.092;5.232;2023-12-22T07:45:58;24.67;;;5.00;;
17598;SDS011;8918;52.092;5.232;2023-12-22T07:48:23;20.13;;;4.60;;
17598;SDS011;8918;52.092;5.232;2023-12-22T07:50:49;20.20;;;4.73;;
17598;SDS011;8918;52.092;5.232;2023-12-22T07:53:15;21.17;;;5.43;;
17598;SDS011;8918;52.092;5.232;2023-12-22T07:55:40;28.50;;;4.77;;
17598;SDS011;8918;52.092;5.232;2023-12-22T07:58:06;22.13;;;4.83;;
17598;SDS011;8918;52.092;5.232;2023-12-22T08:00:32;27.33;;;6.10;;
17598;SDS011;8918;52.092;5.232;2023-12-22T08:02:58;25.57;;;5.03;;
17598;SDS011;8918;52.092;5.232;2023-12-22T08:05:24;22.57;;;4.80;;
17598;SDS011;8918;52.092;5.232;2023-12-22T08:07:50;24.80;;;4.70;;
17598;SDS011;8918;52.092;5.232;2023-12-22T08:10:16;22.63;;;4.77;;
17598;SDS011;8918;52.092;5.232;2023-12-22T08:12:42;22.40;;;4.70;;
17598;SDS011;8918;52.092;5.232;2023-12-22T08:15:08;19.70;;;4.70;;
17598;SDS011;8918;52.092;5.232;2023-12-22T08:17:37;20.13;;;4.07;;
17598;SDS011;8918;52.092;5.232;2023-12-22T08:20:10;10.73;;;2.80;;
17598;SDS011;8918;52.092;5.232;2023-12-22T08:22:36;16.10;;;3.57;;
17598;SDS011;8918;52.092;5.232;2023-12-22T08:25:01;13.47;;;2.33;;
17598;SDS011;8918;52.092;5.232;2023-12-22T08:27:27;14.37;;;2.90;;
17598;SDS011;8918;52.092;5.232;2023-12-22T08:29:53;12.13;;;2.67;;
17598;SDS011;8918;52.092;5.232;2023-12-22T08:32:18;15.30;;;3.20;;
17598;SDS011;8918;52.092;5.232;2023-12-22T08:34:44;13.70;;;3.30;;
17598;SDS011;8918;52.092;5.232;2023-12-22T08:37:10;15.50;;;3.50;;
17598;SDS011;8918;52.092;5.232;2023-12-22T08:39:36;17.50;;;3.70;;
17598;SDS011;8918;52.092;5.232;2023-12-22T08:42:02;16.67;;;3.50;;
17598;SDS011;8918;52.092;5.232;2023-12-22T08:44:27;15.43;;;3.67;;
17598;SDS011;8918;52.092;5.232;2023-12-22T08:46:53;19.50;;;3.97;;
17598;SDS011;8918;52.092;5.232;2023-12-22T08:49:19;18.83;;;4.00;;
17598;SDS011;8918;52.092;5.232;2023-12-22T08:51:44;21.37;;;4.23;;
17598;SDS011;8918;52.092;5.232;2023-12-22T08:54:10;25.70;;;4.70;;
17598;SDS011;8918;52.092;5.232;2023-12-22T08:56:35;19.70;;;4.37;;
17598;SDS011;8918;52.092;5.232;2023-12-22T08:59:01;15.97;;;3.20;;
17598;SDS011;8918;52.092;5.232;2023-12-22T09:01:27;14.37;;;3.23;;
17598;SDS011;8918;52.092;5.232;2023-12-22T09:03:52;18.37;;;3.47;;
17598;SDS011;8918;52.092;5.232;2023-12-22T09:06:19;19.63;;;3.53;;
17598;SDS011;8918;52.092;5.232;2023-12-22T09:08:47;16.33;;;3.87;;
17598;SDS011;8918;52.092;5.232;2023-12-22T09:11:13;14.43;;;5.10;;
17598;SDS011;8918;52.092;5.232;2023-12-22T09:13:41;10.07;;;2.17;;
17598;SDS011;8918;52.092;5.232;2023-12-22T09:16:08;7.27;;;2.40;;
17598;SDS011;8918;52.092;5.232;2023-12-22T09:18:34;11.27;;;2.53;;
17598;SDS011;8918;52.092;5.232;2023-12-22T09:21:00;15.87;;;3.77;;
17598;SDS011;8918;52.092;5.232;2023-12-22T09:23:27;16.53;;;3.40;;
17598;SDS011;8918;52.092;5.232;2023-12-22T09:25:53;18.53;;;3.80;;
17598;SDS011;8918;52.092;5.232;2023-12-22T09:28:19;16.67;;;2.97;;
17598;SDS011;8918;52.092;5.232;2023-12-22T09:30:45;12.43;;;3.77;;
17598;SDS011;8918;52.092;5.232;2023-12-22T09:33:11;11.23;;;2.90;;
17598;SDS011;8918;52.092;5.232;2023-12-22T09:35:37;13.60;;;3.10;;
17598;SDS011;8918;52.092;5.232;2023-12-22T09:38:06;10.23;;;2.60;;
17598;SDS011;8918;52.092;5.232;2023-12-22T09:40:33;9.73;;;2.30;;
17598;SDS011;8918;52.092;5.232;2023-12-22T09:43:01;10.40;;;2.70;;
17598;SDS011;8918;52.092;5.232;2023-12-22T09:45:27;11.87;;;2.20;;
17598;SDS011;8918;52.092;5.232;2023-12-22T09:47:55;10.73;;;1.90;;
17598;SDS011;8918;52.092;5.232;2023-12-22T09:50:23;11.50;;;2.67;;
17598;SDS011;8918;52.092;5.232;2023-12-22T09:52:49;9.03;;;2.00;;
17598;SDS011;8918;52.092;5.232;2023-12-22T09:55:15;8.83;;;2.10;;
17598;SDS011;8918;52.092;5.232;2023-12-22T09:57:42;9.17;;;2.00;;
17598;SDS011;8918;52.092;5.232;2023-12-22T10:00:09;6.37;;;1.83;;
17598;SDS011;8918;52.092;5.232;2023-12-22T10:02:37;9.10;;;2.00;;
17598;SDS011;8918;52.092;5.232;2023-12-22T10:05:02;6.27;;;1.70;;
17598;SDS011;8918;52.092;5.232;2023-12-22T10:07:28;10.57;;;2.43;;
17598;SDS011;8918;52.092;5.232;2023-12-22T10:09:56;12.47;;;1.80;;
17598;SDS011;8918;52.092;5.232;2023-12-22T10:12:24;9.07;;;2.33;;
17598;SDS011;8918;52.092;5.232;2023-12-22T10:14:50;5.80;;;1.70;;
17598;SDS011;8918;52.092;5.232;2023-12-22T10:17:17;7.67;;;1.87;;
17598;SDS011;8918;52.092;5.232;2023-12-22T10:19:43;8.63;;;1.57;;
17598;SDS011;8918;52.092;5.232;2023-12-22T10:22:09;7.37;;;1.70;;
17598;SDS011;8918;52.092;5.232;2023-12-22T10:27:13;5.50;;;1.70;;
17598;SDS011;8918;52.092;5.232;2023-12-22T10:29:41;6.90;;;1.73;;
17598;SDS011;8918;52.092;5.232;2023-12-22T10:32:07;5.73;;;1.87;;
17598;SDS011;8918;52.092;5.232;2023-12-22T10:34:33;6.13;;;2.30;;
17598;SDS011;8918;52.092;5.232;2023-12-22T10:36:59;7.13;;;1.90;;
17598;SDS011;8918;52.092;5.232;2023-12-22T10:39:29;7.03;;;1.90;;
17598;SDS011;8918;52.092;5.232;2023-12-22T10:41:58;7.40;;;2.00;;
17598;SDS011;8918;52.092;5.232;2023-12-22T10:44:25;6.33;;;1.97;;
17598;SDS011;8918;52.092;5.232;2023-12-22T10:46:51;6.80;;;1.80;;
17598;SDS011;8918;52.092;5.232;2023-12-22T10:49:18;8.53;;;2.07;;
17598;SDS011;8918;52.092;5.232;2023-12-22T10:51:44;9.33;;;1.90;;
17598;SDS011;8918;52.092;5.232;2023-12-22T10:54:10;10.87;;;1.93;;
17598;SDS011;8918;52.092;5.232;2023-12-22T10:56:36;6.47;;;1.73;;
17598;SDS011;8918;52.092;5.232;2023-12-22T10:59:02;6.17;;;1.70;;
17598;SDS011;8918;52.092;5.232;2023-12-22T11:01:28;12.00;;;1.80;;
17598;SDS011;8918;52.092;5.232;2023-12-22T11:04:02;14.03;;;2.57;;
17598;SDS011;8918;52.092;5.232;2023-12-22T11:06:30;6.53;;;1.83;;
17598;SDS011;8918;52.092;5.232;2023-12-22T11:08:59;8.50;;;1.97;;
17598;SDS011;8918;52.092;5.232;2023-12-22T11:11:33;10.63;;;2.33;;
17598;SDS011;8918;52.092;5.232;2023-12-22T11:14:00;9.67;;;2.20;;
17598;SDS011;8918;52.092;5.232;2023-12-22T11:16:27;6.40;;;1.60;;
17598;SDS011;8918;52.092;5.232;2023-12-22T11:18:54;10.97;;;2.30;;
17598;SDS011;8918;52.092;5.232;2023-12-22T11:21:22;6.90;;;2.00;;
17598;SDS011;8918;52.092;5.232;2023-12-22T11:23:52;11.70;;;2.60;;
17598;SDS011;8918;52.092;5.232;2023-12-22T11:26:19;11.03;;;2.20;;
17598;SDS011;8918;52.092;5.232;2023-12-22T11:28:47;9.63;;;1.73;;
17598;SDS011;8918;52.092;5.232;2023-12-22T11:31:14;7.93;;;1.97;;
17598;SDS011;8918;52.092;5.232;2023-12-22T11:33:43;7.57;;;1.90;;
17598;SDS011;8918;52.092;5.232;2023-12-22T11:36:11;7.63;;;2.00;;
17598;SDS011;8918;52.092;5.232;2023-12-22T11:38:38;5.63;;;1.80;;
17598;SDS011;8918;52.092;5.232;2023-12-22T11:41:05;7.57;;;1.73;;
17598;SDS011;8918;52.092;5.232;2023-12-22T11:43:34;8.10;;;2.27;;
17598;SDS011;8918;52.092;5.232;2023-12-22T11:46:01;8.17;;;1.80;;
17598;SDS011;8918;52.092;5.232;2023-12-22T11:48:30;6.53;;;1.80;;
17598;SDS011;8918;52.092;5.232;2023-12-22T11:50:56;7.47;;;1.70;;
17598;SDS011;8918;52.092;5.232;2023-12-22T11:53:22;8.60;;;2.10;;
17598;SDS011;8918;52.092;5.232;2023-12-22T11:56:22;8.30;;;2.03;;
17598;SDS011;8918;52.092;5.232;2023-12-22T11:58:44;7.67;;;2.13;;
17598;SDS011;8918;52.092;5.232;2023-12-22T12:01:19;7.67;;;1.60;;
17598;SDS011;8918;52.092;5.232;2023-12-22T12:03:51;5.07;;;1.70;;
17598;SDS011;8918;52.092;5.232;2023-12-22T12:08:55;4.07;;;1.23;;
17598;SDS011;8918;52.092;5.232;2023-12-22T12:14:29;8.70;;;1.83;;
17598;SDS011;8918;52.092;5.232;2023-12-22T12:16:59;10.17;;;1.90;;
17598;SDS011;8918;52.092;5.232;2023-12-22T12:19:30;7.00;;;1.80;;
17598;SDS011;8918;52.092;5.232;2023-12-22T12:21:57;8.10;;;1.90;;
17598;SDS011;8918;52.092;5.232;2023-12-22T12:24:23;6.83;;;1.47;;
17598;SDS011;8918;52.092;5.232;2023-12-22T12:26:50;9.63;;;1.80;;
17598;SDS011;8918;52.092;5.232;2023-12-22T12:29:16;7.63;;;1.70;;
17598;SDS011;8918;52.092;5.232;2023-12-22T12:31:42;7.50;;;2.30;;
17598;SDS011;8918;52.092;5.232;2023-12-22T12:34:09;9.67;;;1.90;;
17598;SDS011;8918;52.092;5.232;2023-12-22T12:36:36;6.17;;;1.97;;
17598;SDS011;8918;52.092;5.232;2023-12-22T12:39:06;8.30;;;1.87;;
17598;SDS011;8918;52.092;5.232;2023-12-22T12:41:33;7.10;;;1.70;;
17598;SDS011;8918;52.092;5.232;2023-12-22T12:44:03;10.73;;;2.20;;
17598;SDS011;8918;52.092;5.232;2023-12-22T12:46:32;11.70;;;2.33;;
17598;SDS011;8918;52.092;5.232;2023-12-22T12:49:02;10.03;;;2.20;;
17598;SDS011;8918;52.092;5.232;2023-12-22T12:51:30;13.10;;;2.60;;
17598;SDS011;8918;52.092;5.232;2023-12-22T12:54:00;7.50;;;1.57;;
17598;SDS011;8918;52.092;5.232;2023-12-22T12:56:25;9.20;;;2.27;;
17598;SDS011;8918;52.092;5.232;2023-12-22T12:58:51;11.67;;;2.07;;
17598;SDS011;8918;52.092;5.232;2023-12-22T13:01:17;10.53;;;2.03;;
17598;SDS011;8918;52.092;5.232;2023-12-22T13:03:55;9.40;;;2.07;;
17598;SDS011;8918;52.092;5.232;2023-12-22T13:06:22;9.27;;;2.03;;
17598;SDS011;8918;52.092;5.232;2023-12-22T13:08:48;9.00;;;1.60;;
17598;SDS011;8918;52.092;5.232;2023-12-22T13:11:35;10.80;;;1.80;;
17598;SDS011;8918;52.092;5.232;2023-12-22T13:14:02;6.80;;;2.00;;
17598;SDS011;8918;52.092;5.232;2023-12-22T13:16:28;10.80;;;1.80;;
17598;SDS011;8918;52.092;5.232;2023-12-22T13:18:57;8.33;;;2.03;;
17598;SDS011;8918;52.092;5.232;2023-12-22T13:21:23;6.03;;;1.27;;
17598;SDS011;8918;52.092;5.232;2023-12-22T13:26:37;8.50;;;1.87;;
17598;SDS011;8918;52.092;5.232;2023-12-22T13:29:03;7.07;;;2.00;;
17598;SDS011;8918;52.092;5.232;2023-12-22T13:31:30;9.77;;;2.10;;
17598;SDS011;8918;52.092;5.232;2023-12-22T13:33:57;10.07;;;2.10;;
17598;SDS011;8918;52.092;5.232;2023-12-22T13:36:25;8.03;;;1.63;;
17598;SDS011;8918;52.092;5.232;2023-12-22T13:38:51;8.80;;;2.00;;
17598;SDS011;8918;52.092;5.232;2023-12-22T13:41:17;9.60;;;2.10;;
17598;SDS011;8918;52.092;5.232;2023-12-22T13:43:44;12.57;;;2.53;;
17598;SDS011;8918;52.092;5.232;2023-12-22T13:46:10;11.73;;;3.53;;
17598;SDS011;8918;52.092;5.232;2023-12-22T13:48:37;12.30;;;3.20;;
17598;SDS011;8918;52.092;5.232;2023-12-22T13:51:03;10.77;;;2.23;;
17598;SDS011;8918;52.092;5.232;2023-12-22T13:53:29;5.40;;;2.10;;
17598;SDS011;8918;52.092;5.232;2023-12-22T13:55:55;9.33;;;2.30;;
17598;SDS011;8918;52.092;5.232;2023-12-22T13:58:24;7.80;;;1.80;;
17598;SDS011;8918;52.092;5.232;2023-12-22T14:00:50;8.90;;;1.80;;
17598;SDS011;8918;52.092;5.232;2023-12-22T14:03:16;7.67;;;1.90;;
17598;SDS011;8918;52.092;5.232;2023-12-22T14:05:43;9.17;;;2.33;;
17598;SDS011;8918;52.092;5.232;2023-12-22T14:08:09;12.63;;;2.27;;
17598;SDS011;8918;52.092;5.232;2023-12-22T14:10:34;10.60;;;2.40;;
17598;SDS011;8918;52.092;5.232;2023-12-22T14:13:00;9.20;;;2.10;;
17598;SDS011;8918;52.092;5.232;2023-12-22T14:15:25;11.30;;;2.17;;
17598;SDS011;8918;52.092;5.232;2023-12-22T14:17:54;9.67;;;1.90;;
17598;SDS011;8918;52.092;5.232;2023-12-22T14:20:20;10.83;;;2.23;;
17598;SDS011;8918;52.092;5.232;2023-12-22T14:22:46;13.23;;;2.00;;
17598;SDS011;8918;52.092;5.232;2023-12-22T14:25:11;9.73;;;2.20;;
17598;SDS011;8918;52.092;5.232;2023-12-22T14:27:37;13.13;;;2.93;;
17598;SDS011;8918;52.092;5.232;2023-12-22T14:30:03;8.50;;;2.07;;
17598;SDS011;8918;52.092;5.232;2023-12-22T14:32:29;9.50;;;2.17;;
17598;SDS011;8918;52.092;5.232;2023-12-22T14:34:55;13.20;;;2.87;;
17598;SDS011;8918;52.092;5.232;2023-12-22T14:37:20;8.37;;;2.03;;
17598;SDS011;8918;52.092;5.232;2023-12-22T14:39:46;14.27;;;2.60;;
17598;SDS011;8918;52.092;5.232;2023-12-22T14:42:15;9.60;;;1.93;;
17598;SDS011;8918;52.092;5.232;2023-12-22T14:44:40;14.03;;;2.50;;
17598;SDS011;8918;52.092;5.232;2023-12-22T14:47:06;18.03;;;3.00;;
17598;SDS011;8918;52.092;5.232;2023-12-22T14:49:31;9.23;;;1.90;;
17598;SDS011;8918;52.092;5.232;2023-12-22T14:51:57;12.73;;;2.40;;
17598;SDS011;8918;52.092;5.232;2023-12-22T14:54:24;13.87;;;3.10;;
17598;SDS011;8918;52.092;5.232;2023-12-22T14:56:50;12.77;;;2.80;;
17598;SDS011;8918;52.092;5.232;2023-12-22T14:59:16;13.27;;;2.90;;
17598;SDS011;8918;52.092;5.232;2023-12-22T15:01:41;13.77;;;3.17;;
17598;SDS011;8918;52.092;5.232;2023-12-22T15:04:08;10.37;;;2.60;;